sensor_id;sensor_type;location;lat;lon;timestamp;P1;durP1;ratioP1;P2;durP2;ratioP2
37221;SDS011;23119;51.842;-2.230;2023-05-27T00:00:46;6.78;;;0.80;;
37221;SDS011;23119;51.842;-2.230;2023-05-27T00:03:16;7.03;;;1.00;;
37221;SDS011;23119;51.842;-2.230;2023-05-27T00:05:48;6.65;;;1.45;;
37221;SDS011;23119;51.842;-2.230;2023-05-27T00:08:13;7.18;;;1.33;;
37221;SDS011;23119;51.842;-2.230;2023-05-27T00:10:44;6.40;;;0.73;;
37221;SDS011;23119;51.842;-2.230;2023-05-27T00:13:13;4.80;;;0.70;;
37221;SDS011;23119;51.842;-2.230;2023-05-27T00:15:39;10.10;;;1.25;;
37221;SDS011;23119;51.842;-2.230;2023-05-27T00:18:05;9.15;;;1.17;;
37221;SDS011;23119;51.842;-2.230;2023-05-27T00:20:32;8.95;;;1.13;;
37221;SDS011;23119;51.842;-2.230;2023-05-27T00:22:58;7.53;;;1.40;;
37221;SDS011;23119;51.842;-2.230;2023-05-27T00:25:28;5.18;;;0.90;;
37221;SDS011;23119;51.842;-2.230;2023-05-27T00:27:54;6.85;;;1.13;;
37221;SDS011;23119;51.842;-2.230;2023-05-27T00:30:20;8.00;;;0.82;;
37221;SDS011;23119;51.842;-2.230;2023-05-27T00:32:46;6.32;;;1.27;;
37221;SDS011;23119;51.842;-2.230;2023-05-27T00:35:12;10.52;;;0.98;;
37221;SDS011;23119;51.842;-2.230;2023-05-27T00:37:38;10.25;;;1.20;;
37221;SDS011;23119;51.842;-2.230;2023-05-27T00:40:04;6.65;;;1.00;;
37221;SDS011;23119;51.842;-2.230;2023-05-27T00:42:35;8.67;;;1.00;;
37221;SDS011;23119;51.842;-2.230;2023-05-27T00:45:03;11.55;;;1.58;;
37221;SDS011;23119;51.842;-2.230;2023-05-27T00:47:32;14.63;;;1.30;;
37221;SDS011;23119;51.842;-2.230;2023-05-27T00:50:01;7.63;;;1.23;;
37221;SDS011;23119;51.842;-2.230;2023-05-27T00:52:30;6.35;;;1.10;;
37221;SDS011;23119;51.842;-2.230;2023-05-27T00:54:57;7.20;;;1.30;;
37221;SDS011;23119;51.842;-2.230;2023-05-27T00:57:24;9.13;;;1.30;;
37221;SDS011;23119;51.842;-2.230;2023-05-27T00:59:52;6.47;;;1.20;;
37221;SDS011;23119;51.842;-2.230;2023-05-27T01:02:28;9.48;;;0.93;;
37221;SDS011;23119;51.842;-2.230;2023-05-27T01:04:57;9.43;;;1.30;;
37221;SDS011;23119;51.842;-2.230;2023-05-27T01:07:39;10.25;;;1.95;;
37221;SDS011;23119;51.842;-2.230;2023-05-27T01:16:01;8.93;;;1.33;;
37221;SDS011;23119;51.842;-2.230;2023-05-27T01:18:33;10.80;;;1.10;;
37221;SDS011;23119;51.842;-2.230;2023-05-27T01:21:02;6.10;;;1.10;;
37221;SDS011;23119;51.842;-2.230;2023-05-27T01:23:31;7.13;;;1.13;;
37221;SDS011;23119;51.842;-2.230;2023-05-27T01:25:58;10.48;;;1.02;;
37221;SDS011;23119;51.842;-2.230;2023-05-27T01:28:24;5.47;;;0.80;;
37221;SDS011;23119;51.842;-2.230;2023-05-27T01:30:51;9.13;;;1.20;;
37221;SDS011;23119;51.842;-2.230;2023-05-27T01:33:34;9.45;;;1.48;;
37221;SDS011;23119;51.842;-2.230;2023-05-27T01:36:04;9.68;;;1.10;;
37221;SDS011;23119;51.842;-2.230;2023-05-27T01:38:37;5.53;;;1.33;;
37221;SDS011;23119;51.842;-2.230;2023-05-27T01:41:12;9.07;;;1.52;;
37221;SDS011;23119;51.842;-2.230;2023-05-27T01:43:40;10.68;;;1.17;;
37221;SDS011;23119;51.842;-2.230;2023-05-27T01:46:07;11.15;;;1.67;;
37221;SDS011;23119;51.842;-2.230;2023-05-27T01:48:32;8.48;;;0.80;;
37221;SDS011;23119;51.842;-2.230;2023-05-27T01:50:58;8.63;;;1.92;;
37221;SDS011;23119;51.842;-2.230;2023-05-27T01:53:24;8.00;;;1.00;;
37221;SDS011;23119;51.842;-2.230;2023-05-27T01:55:50;7.32;;;1.58;;
37221;SDS011;23119;51.842;-2.230;2023-05-27T01:58:15;13.13;;;1.33;;
37221;SDS011;23119;51.842;-2.230;2023-05-27T02:00:41;7.45;;;1.52;;
37221;SDS011;23119;51.842;-2.230;2023-05-27T02:03:07;5.93;;;0.95;;
37221;SDS011;23119;51.842;-2.230;2023-05-27T02:05:32;14.60;;;1.75;;
37221;SDS011;23119;51.842;-2.230;2023-05-27T02:08:01;16.90;;;1.88;;
37221;SDS011;23119;51.842;-2.230;2023-05-27T02:10:27;7.43;;;1.13;;
37221;SDS011;23119;51.842;-2.230;2023-05-27T02:12:53;11.82;;;2.72;;
37221;SDS011;23119;51.842;-2.230;2023-05-27T02:15:19;7.90;;;1.23;;
37221;SDS011;23119;51.842;-2.230;2023-05-27T02:17:50;12.02;;;1.70;;
37221;SDS011;23119;51.842;-2.230;2023-05-27T02:20:20;11.10;;;1.27;;
37221;SDS011;23119;51.842;-2.230;2023-05-27T02:22:49;9.90;;;1.75;;
37221;SDS011;23119;51.842;-2.230;2023-05-27T02:25:18;8.88;;;1.52;;
37221;SDS011;23119;51.842;-2.230;2023-05-27T02:27:46;6.97;;;1.33;;
37221;SDS011;23119;51.842;-2.230;2023-05-27T02:30:14;14.50;;;1.70;;
37221;SDS011;23119;51.842;-2.230;2023-05-27T02:32:40;14.50;;;1.92;;
37221;SDS011;23119;51.842;-2.230;2023-05-27T02:35:06;8.15;;;1.23;;
37221;SDS011;23119;51.842;-2.230;2023-05-27T02:37:32;8.75;;;2.03;;
37221;SDS011;23119;51.842;-2.230;2023-05-27T02:40:01;10.20;;;2.05;;
37221;SDS011;23119;51.842;-2.230;2023-05-27T02:42:27;13.60;;;1.42;;
37221;SDS011;23119;51.842;-2.230;2023-05-27T02:44:53;6.28;;;1.10;;
37221;SDS011;23119;51.842;-2.230;2023-05-27T02:47:19;8.38;;;1.83;;
37221;SDS011;23119;51.842;-2.230;2023-05-27T02:49:45;8.98;;;1.58;;
37221;SDS011;23119;51.842;-2.230;2023-05-27T02:52:10;10.65;;;1.33;;
37221;SDS011;23119;51.842;-2.230;2023-05-27T02:54:36;7.93;;;1.20;;
37221;SDS011;23119;51.842;-2.230;2023-05-27T02:57:02;7.15;;;1.38;;
37221;SDS011;23119;51.842;-2.230;2023-05-27T02:59:30;12.15;;;1.60;;
37221;SDS011;23119;51.842;-2.230;2023-05-27T03:01:57;13.80;;;1.60;;
37221;SDS011;23119;51.842;-2.230;2023-05-27T03:04:23;11.10;;;1.20;;
37221;SDS011;23119;51.842;-2.230;2023-05-27T03:06:49;10.60;;;1.30;;
37221;SDS011;23119;51.842;-2.230;2023-05-27T03:09:15;9.68;;;1.10;;
37221;SDS011;23119;51.842;-2.230;2023-05-27T03:11:45;9.48;;;1.35;;
37221;SDS011;23119;51.842;-2.230;2023-05-27T03:14:10;8.38;;;1.48;;
37221;SDS011;23119;51.842;-2.230;2023-05-27T03:16:36;11.48;;;2.05;;
37221;SDS011;23119;51.842;-2.230;2023-05-27T03:19:06;10.00;;;1.35;;
37221;SDS011;23119;51.842;-2.230;2023-05-27T03:21:33;9.73;;;1.58;;
37221;SDS011;23119;51.842;-2.230;2023-05-27T03:24:00;9.63;;;1.58;;
37221;SDS011;23119;51.842;-2.230;2023-05-27T03:26:28;8.93;;;1.50;;
37221;SDS011;23119;51.842;-2.230;2023-05-27T03:28:54;15.63;;;1.67;;
37221;SDS011;23119;51.842;-2.230;2023-05-27T03:31:19;8.27;;;2.00;;
37221;SDS011;23119;51.842;-2.230;2023-05-27T03:33:48;13.85;;;1.92;;
37221;SDS011;23119;51.842;-2.230;2023-05-27T03:36:14;10.88;;;1.45;;
37221;SDS011;23119;51.842;-2.230;2023-05-27T03:38:40;10.25;;;1.50;;
37221;SDS011;23119;51.842;-2.230;2023-05-27T03:41:06;13.02;;;1.80;;
37221;SDS011;23119;51.842;-2.230;2023-05-27T03:43:31;12.10;;;1.42;;
37221;SDS011;23119;51.842;-2.230;2023-05-27T03:45:57;11.38;;;1.70;;
37221;SDS011;23119;51.842;-2.230;2023-05-27T03:48:23;14.25;;;2.00;;
37221;SDS011;23119;51.842;-2.230;2023-05-27T03:50:48;12.90;;;1.67;;
37221;SDS011;23119;51.842;-2.230;2023-05-27T03:53:14;13.57;;;1.58;;
37221;SDS011;23119;51.842;-2.230;2023-05-27T03:55:40;12.60;;;2.05;;
37221;SDS011;23119;51.842;-2.230;2023-05-27T03:58:05;12.70;;;1.88;;
37221;SDS011;23119;51.842;-2.230;2023-05-27T04:00:34;14.25;;;1.70;;
37221;SDS011;23119;51.842;-2.230;2023-05-27T04:03:01;10.00;;;1.63;;
37221;SDS011;23119;51.842;-2.230;2023-05-27T04:05:27;13.73;;;1.55;;
37221;SDS011;23119;51.842;-2.230;2023-05-27T04:07:52;11.00;;;1.95;;
37221;SDS011;23119;51.842;-2.230;2023-05-27T04:10:21;13.48;;;1.67;;
37221;SDS011;23119;51.842;-2.230;2023-05-27T04:12:48;9.95;;;1.50;;
37221;SDS011;23119;51.842;-2.230;2023-05-27T04:15:14;9.80;;;1.65;;
37221;SDS011;23119;51.842;-2.230;2023-05-27T04:17:40;11.00;;;1.80;;
37221;SDS011;23119;51.842;-2.230;2023-05-27T04:20:06;10.48;;;1.98;;
37221;SDS011;23119;51.842;-2.230;2023-05-27T04:22:42;8.65;;;1.33;;
37221;SDS011;23119;51.842;-2.230;2023-05-27T04:25:08;12.20;;;1.83;;
37221;SDS011;23119;51.842;-2.230;2023-05-27T04:27:34;10.20;;;1.75;;
37221;SDS011;23119;51.842;-2.230;2023-05-27T04:30:02;11.68;;;1.85;;
37221;SDS011;23119;51.842;-2.230;2023-05-27T04:32:41;13.82;;;1.88;;
37221;SDS011;23119;51.842;-2.230;2023-05-27T04:35:07;12.75;;;2.05;;
37221;SDS011;23119;51.842;-2.230;2023-05-27T04:37:34;10.80;;;1.60;;
37221;SDS011;23119;51.842;-2.230;2023-05-27T04:40:01;9.07;;;1.35;;
37221;SDS011;23119;51.842;-2.230;2023-05-27T04:42:29;12.95;;;1.55;;
37221;SDS011;23119;51.842;-2.230;2023-05-27T04:44:54;11.25;;;1.85;;
37221;SDS011;23119;51.842;-2.230;2023-05-27T04:47:22;14.45;;;2.30;;
37221;SDS011;23119;51.842;-2.230;2023-05-27T04:49:50;13.93;;;2.08;;
37221;SDS011;23119;51.842;-2.230;2023-05-27T04:52:16;11.38;;;1.55;;
37221;SDS011;23119;51.842;-2.230;2023-05-27T04:54:46;10.82;;;2.08;;
37221;SDS011;23119;51.842;-2.230;2023-05-27T04:57:12;8.90;;;1.95;;
37221;SDS011;23119;51.842;-2.230;2023-05-27T04:59:42;17.40;;;3.83;;
37221;SDS011;23119;51.842;-2.230;2023-05-27T05:02:24;10.15;;;1.83;;
37221;SDS011;23119;51.842;-2.230;2023-05-27T05:05:00;6.22;;;1.42;;
37221;SDS011;23119;51.842;-2.230;2023-05-27T05:07:32;8.32;;;2.28;;
37221;SDS011;23119;51.842;-2.230;2023-05-27T05:09:59;12.45;;;1.85;;
37221;SDS011;23119;51.842;-2.230;2023-05-27T05:12:27;9.70;;;1.75;;
37221;SDS011;23119;51.842;-2.230;2023-05-27T05:14:58;11.03;;;1.63;;
37221;SDS011;23119;51.842;-2.230;2023-05-27T05:17:24;11.07;;;1.98;;
37221;SDS011;23119;51.842;-2.230;2023-05-27T05:19:52;13.20;;;2.15;;
37221;SDS011;23119;51.842;-2.230;2023-05-27T05:22:18;14.35;;;2.55;;
37221;SDS011;23119;51.842;-2.230;2023-05-27T05:24:47;9.02;;;1.50;;
37221;SDS011;23119;51.842;-2.230;2023-05-27T05:27:16;12.27;;;1.98;;
37221;SDS011;23119;51.842;-2.230;2023-05-27T05:29:43;15.00;;;2.15;;
37221;SDS011;23119;51.842;-2.230;2023-05-27T05:32:11;7.90;;;1.77;;
37221;SDS011;23119;51.842;-2.230;2023-05-27T05:34:38;11.00;;;1.90;;
37221;SDS011;23119;51.842;-2.230;2023-05-27T05:37:04;12.75;;;2.28;;
37221;SDS011;23119;51.842;-2.230;2023-05-27T05:39:30;10.18;;;1.80;;
37221;SDS011;23119;51.842;-2.230;2023-05-27T05:41:56;11.25;;;2.13;;
37221;SDS011;23119;51.842;-2.230;2023-05-27T05:44:22;11.68;;;2.00;;
37221;SDS011;23119;51.842;-2.230;2023-05-27T05:46:53;7.68;;;1.77;;
37221;SDS011;23119;51.842;-2.230;2023-05-27T05:49:19;10.85;;;2.55;;
37221;SDS011;23119;51.842;-2.230;2023-05-27T05:51:44;8.27;;;2.08;;
37221;SDS011;23119;51.842;-2.230;2023-05-27T05:54:10;10.55;;;1.60;;
37221;SDS011;23119;51.842;-2.230;2023-05-27T05:56:36;12.85;;;2.72;;
37221;SDS011;23119;51.842;-2.230;2023-05-27T05:59:04;11.80;;;1.70;;
37221;SDS011;23119;51.842;-2.230;2023-05-27T06:01:30;9.18;;;2.00;;
37221;SDS011;23119;51.842;-2.230;2023-05-27T06:03:56;14.25;;;2.55;;
37221;SDS011;23119;51.842;-2.230;2023-05-27T06:06:23;11.15;;;2.08;;
37221;SDS011;23119;51.842;-2.230;2023-05-27T06:08:51;13.43;;;2.85;;
37221;SDS011;23119;51.842;-2.230;2023-05-27T06:11:16;10.32;;;2.15;;
37221;SDS011;23119;51.842;-2.230;2023-05-27T06:13:44;10.57;;;2.20;;
37221;SDS011;23119;51.842;-2.230;2023-05-27T06:16:12;10.95;;;2.60;;
37221;SDS011;23119;51.842;-2.230;2023-05-27T06:18:38;9.57;;;2.25;;
37221;SDS011;23119;51.842;-2.230;2023-05-27T06:21:06;11.30;;;2.10;;
37221;SDS011;23119;51.842;-2.230;2023-05-27T06:23:39;11.60;;;2.13;;
37221;SDS011;23119;51.842;-2.230;2023-05-27T06:26:05;13.95;;;2.53;;
37221;SDS011;23119;51.842;-2.230;2023-05-27T06:28:31;10.18;;;1.90;;
37221;SDS011;23119;51.842;-2.230;2023-05-27T06:30:59;13.23;;;3.15;;
37221;SDS011;23119;51.842;-2.230;2023-05-27T06:33:25;10.63;;;2.15;;
37221;SDS011;23119;51.842;-2.230;2023-05-27T06:35:53;11.82;;;2.22;;
37221;SDS011;23119;51.842;-2.230;2023-05-27T06:38:19;8.15;;;1.58;;
37221;SDS011;23119;51.842;-2.230;2023-05-27T06:40:45;12.35;;;2.42;;
37221;SDS011;23119;51.842;-2.230;2023-05-27T06:43:11;11.63;;;2.30;;
37221;SDS011;23119;51.842;-2.230;2023-05-27T06:45:36;11.88;;;2.25;;
37221;SDS011;23119;51.842;-2.230;2023-05-27T06:48:03;12.50;;;2.47;;
37221;SDS011;23119;51.842;-2.230;2023-05-27T06:50:32;11.52;;;2.67;;
37221;SDS011;23119;51.842;-2.230;2023-05-27T06:52:59;14.30;;;2.58;;
37221;SDS011;23119;51.842;-2.230;2023-05-27T06:55:24;12.35;;;3.03;;
37221;SDS011;23119;51.842;-2.230;2023-05-27T06:57:50;9.23;;;2.60;;
37221;SDS011;23119;51.842;-2.230;2023-05-27T07:00:16;13.35;;;1.95;;
37221;SDS011;23119;51.842;-2.230;2023-05-27T07:02:44;11.95;;;2.15;;
37221;SDS011;23119;51.842;-2.230;2023-05-27T07:05:10;14.57;;;2.72;;
37221;SDS011;23119;51.842;-2.230;2023-05-27T07:07:39;13.15;;;2.47;;
37221;SDS011;23119;51.842;-2.230;2023-05-27T07:10:05;16.48;;;3.42;;
37221;SDS011;23119;51.842;-2.230;2023-05-27T07:12:34;11.57;;;2.58;;
37221;SDS011;23119;51.842;-2.230;2023-05-27T07:15:02;9.10;;;2.28;;
37221;SDS011;23119;51.842;-2.230;2023-05-27T07:17:28;11.38;;;2.67;;
37221;SDS011;23119;51.842;-2.230;2023-05-27T07:20:00;11.35;;;2.80;;
37221;SDS011;23119;51.842;-2.230;2023-05-27T07:22:25;12.63;;;2.53;;
37221;SDS011;23119;51.842;-2.230;2023-05-27T07:24:51;11.07;;;2.28;;
37221;SDS011;23119;51.842;-2.230;2023-05-27T07:27:17;9.57;;;2.13;;
37221;SDS011;23119;51.842;-2.230;2023-05-27T07:29:45;12.80;;;2.30;;
37221;SDS011;23119;51.842;-2.230;2023-05-27T07:32:14;10.75;;;2.45;;
37221;SDS011;23119;51.842;-2.230;2023-05-27T07:34:44;8.20;;;2.65;;
37221;SDS011;23119;51.842;-2.230;2023-05-27T07:37:15;9.93;;;2.47;;
37221;SDS011;23119;51.842;-2.230;2023-05-27T07:39:41;10.95;;;2.75;;
37221;SDS011;23119;51.842;-2.230;2023-05-27T07:42:09;8.80;;;2.25;;
37221;SDS011;23119;51.842;-2.230;2023-05-27T07:44:35;9.13;;;1.98;;
37221;SDS011;23119;51.842;-2.230;2023-05-27T07:47:06;9.20;;;1.90;;
37221;SDS011;23119;51.842;-2.230;2023-05-27T07:49:31;11.25;;;2.33;;
37221;SDS011;23119;51.842;-2.230;2023-05-27T07:52:08;7.45;;;1.50;;
37221;SDS011;23119;51.842;-2.230;2023-05-27T07:54:34;9.27;;;2.08;;
37221;SDS011;23119;51.842;-2.230;2023-05-27T07:57:02;11.50;;;2.50;;
37221;SDS011;23119;51.842;-2.230;2023-05-27T07:59:31;11.55;;;2.63;;
37221;SDS011;23119;51.842;-2.230;2023-05-27T08:01:57;10.82;;;2.53;;
37221;SDS011;23119;51.842;-2.230;2023-05-27T08:04:25;11.95;;;2.50;;
37221;SDS011;23119;51.842;-2.230;2023-05-27T08:06:54;10.20;;;3.05;;
37221;SDS011;23119;51.842;-2.230;2023-05-27T08:09:22;9.02;;;2.58;;
37221;SDS011;23119;51.842;-2.230;2023-05-27T08:11:48;11.32;;;2.60;;
37221;SDS011;23119;51.842;-2.230;2023-05-27T08:14:21;10.63;;;3.03;;
37221;SDS011;23119;51.842;-2.230;2023-05-27T08:16:48;12.57;;;2.42;;
37221;SDS011;23119;51.842;-2.230;2023-05-27T08:19:14;10.85;;;1.92;;
37221;SDS011;23119;51.842;-2.230;2023-05-27T08:21:40;7.88;;;2.95;;
37221;SDS011;23119;51.842;-2.230;2023-05-27T08:24:13;6.22;;;1.80;;
37221;SDS011;23119;51.842;-2.230;2023-05-27T08:26:39;7.07;;;2.20;;
37221;SDS011;23119;51.842;-2.230;2023-05-27T08:29:05;8.40;;;1.75;;
37221;SDS011;23119;51.842;-2.230;2023-05-27T08:31:31;8.27;;;1.77;;
37221;SDS011;23119;51.842;-2.230;2023-05-27T08:33:59;8.40;;;1.75;;
37221;SDS011;23119;51.842;-2.230;2023-05-27T08:36:27;9.02;;;1.92;;
37221;SDS011;23119;51.842;-2.230;2023-05-27T08:38:59;12.23;;;3.33;;
37221;SDS011;23119;51.842;-2.230;2023-05-27T08:41:27;10.20;;;1.83;;
37221;SDS011;23119;51.842;-2.230;2023-05-27T08:43:58;6.13;;;1.50;;
37221;SDS011;23119;51.842;-2.230;2023-05-27T08:46:24;8.27;;;1.58;;
37221;SDS011;23119;51.842;-2.230;2023-05-27T08:48:51;8.73;;;1.75;;
37221;SDS011;23119;51.842;-2.230;2023-05-27T08:51:22;7.65;;;1.98;;
37221;SDS011;23119;51.842;-2.230;2023-05-27T08:53:52;8.05;;;1.58;;
37221;SDS011;23119;51.842;-2.230;2023-05-27T08:56:21;5.20;;;1.45;;
37221;SDS011;23119;51.842;-2.230;2023-05-27T08:58:50;4.85;;;1.13;;
37221;SDS011;23119;51.842;-2.230;2023-05-27T09:01:21;7.13;;;1.40;;
37221;SDS011;23119;51.842;-2.230;2023-05-27T09:03:51;4.53;;;1.10;;
37221;SDS011;23119;51.842;-2.230;2023-05-27T09:06:22;6.72;;;1.50;;
37221;SDS011;23119;51.842;-2.230;2023-05-27T09:08:50;7.22;;;1.55;;
37221;SDS011;23119;51.842;-2.230;2023-05-27T09:11:25;6.45;;;1.77;;
37221;SDS011;23119;51.842;-2.230;2023-05-27T09:13:59;10.95;;;2.00;;
37221;SDS011;23119;51.842;-2.230;2023-05-27T09:16:27;7.35;;;1.85;;
37221;SDS011;23119;51.842;-2.230;2023-05-27T09:18:57;8.65;;;1.92;;
37221;SDS011;23119;51.842;-2.230;2023-05-27T09:21:24;10.05;;;2.20;;
37221;SDS011;23119;51.842;-2.230;2023-05-27T09:23:56;8.88;;;1.70;;
37221;SDS011;23119;51.842;-2.230;2023-05-27T09:26:23;10.40;;;2.35;;
37221;SDS011;23119;51.842;-2.230;2023-05-27T09:28:51;10.45;;;2.40;;
37221;SDS011;23119;51.842;-2.230;2023-05-27T09:31:16;9.05;;;1.98;;
37221;SDS011;23119;51.842;-2.230;2023-05-27T09:33:47;9.35;;;2.50;;
37221;SDS011;23119;51.842;-2.230;2023-05-27T09:36:19;11.10;;;2.33;;
37221;SDS011;23119;51.842;-2.230;2023-05-27T09:38:47;9.43;;;2.13;;
37221;SDS011;23119;51.842;-2.230;2023-05-27T09:41:22;11.50;;;2.40;;
37221;SDS011;23119;51.842;-2.230;2023-05-27T09:43:54;9.95;;;3.15;;
37221;SDS011;23119;51.842;-2.230;2023-05-27T09:46:21;9.55;;;1.92;;
37221;SDS011;23119;51.842;-2.230;2023-05-27T09:48:47;10.85;;;2.10;;
37221;SDS011;23119;51.842;-2.230;2023-05-27T09:51:13;7.85;;;2.20;;
37221;SDS011;23119;51.842;-2.230;2023-05-27T09:53:47;11.93;;;2.55;;
37221;SDS011;23119;51.842;-2.230;2023-05-27T09:56:16;9.70;;;1.63;;
37221;SDS011;23119;51.842;-2.230;2023-05-27T09:58:45;8.45;;;1.92;;
37221;SDS011;23119;51.842;-2.230;2023-05-27T10:01:12;8.27;;;2.45;;
37221;SDS011;23119;51.842;-2.230;2023-05-27T10:03:45;9.93;;;2.00;;
37221;SDS011;23119;51.842;-2.230;2023-05-27T10:06:14;10.02;;;2.13;;
37221;SDS011;23119;51.842;-2.230;2023-05-27T10:08:41;8.40;;;2.30;;
37221;SDS011;23119;51.842;-2.230;2023-05-27T10:11:13;9.65;;;2.67;;
37221;SDS011;23119;51.842;-2.230;2023-05-27T10:13:39;9.80;;;1.70;;
37221;SDS011;23119;51.842;-2.230;2023-05-27T10:18:57;8.23;;;2.00;;
37221;SDS011;23119;51.842;-2.230;2023-05-27T10:21:28;9.70;;;2.22;;
37221;SDS011;23119;51.842;-2.230;2023-05-27T10:24:00;8.73;;;2.00;;
37221;SDS011;23119;51.842;-2.230;2023-05-27T10:26:33;6.72;;;1.75;;
37221;SDS011;23119;51.842;-2.230;2023-05-27T10:29:13;10.40;;;2.25;;
37221;SDS011;23119;51.842;-2.230;2023-05-27T10:31:52;7.93;;;1.80;;
37221;SDS011;23119;51.842;-2.230;2023-05-27T10:34:23;7.38;;;1.77;;
37221;SDS011;23119;51.842;-2.230;2023-05-27T10:37:08;11.60;;;2.35;;
37221;SDS011;23119;51.842;-2.230;2023-05-27T10:39:37;6.78;;;1.83;;
37221;SDS011;23119;51.842;-2.230;2023-05-27T10:42:06;8.93;;;2.10;;
37221;SDS011;23119;51.842;-2.230;2023-05-27T10:44:32;9.85;;;2.50;;
37221;SDS011;23119;51.842;-2.230;2023-05-27T10:47:13;7.68;;;1.42;;
37221;SDS011;23119;51.842;-2.230;2023-05-27T10:49:40;4.95;;;1.50;;
37221;SDS011;23119;51.842;-2.230;2023-05-27T10:52:16;6.37;;;1.70;;
37221;SDS011;23119;51.842;-2.230;2023-05-27T10:54:45;8.95;;;1.92;;
37221;SDS011;23119;51.842;-2.230;2023-05-27T10:57:17;7.88;;;1.70;;
37221;SDS011;23119;51.842;-2.230;2023-05-27T10:59:53;7.88;;;1.92;;
37221;SDS011;23119;51.842;-2.230;2023-05-27T11:02:20;8.10;;;1.60;;
37221;SDS011;23119;51.842;-2.230;2023-05-27T11:04:49;6.55;;;1.27;;
37221;SDS011;23119;51.842;-2.230;2023-05-27T11:07:19;5.10;;;1.35;;
37221;SDS011;23119;51.842;-2.230;2023-05-27T11:09:50;6.55;;;1.77;;
37221;SDS011;23119;51.842;-2.230;2023-05-27T11:12:21;7.88;;;1.73;;
37221;SDS011;23119;51.842;-2.230;2023-05-27T11:17:14;11.05;;;1.95;;
37221;SDS011;23119;51.842;-2.230;2023-05-27T11:19:41;7.55;;;1.20;;
37221;SDS011;23119;51.842;-2.230;2023-05-27T11:22:08;7.10;;;1.60;;
37221;SDS011;23119;51.842;-2.230;2023-05-27T11:24:35;7.50;;;1.30;;
37221;SDS011;23119;51.842;-2.230;2023-05-27T11:27:11;3.35;;;1.00;;
37221;SDS011;23119;51.842;-2.230;2023-05-27T11:29:39;6.05;;;1.45;;
37221;SDS011;23119;51.842;-2.230;2023-05-27T11:32:06;15.23;;;2.13;;
37221;SDS011;23119;51.842;-2.230;2023-05-27T11:34:36;5.20;;;1.27;;
37221;SDS011;23119;51.842;-2.230;2023-05-27T11:37:02;4.68;;;1.60;;
37221;SDS011;23119;51.842;-2.230;2023-05-27T11:39:29;6.38;;;1.20;;
37221;SDS011;23119;51.842;-2.230;2023-05-27T11:41:55;4.78;;;1.35;;
37221;SDS011;23119;51.842;-2.230;2023-05-27T11:44:22;4.97;;;1.08;;
37221;SDS011;23119;51.842;-2.230;2023-05-27T11:46:49;5.10;;;1.33;;
37221;SDS011;23119;51.842;-2.230;2023-05-27T11:49:18;7.00;;;1.48;;
37221;SDS011;23119;51.842;-2.230;2023-05-27T11:51:47;6.72;;;1.48;;
37221;SDS011;23119;51.842;-2.230;2023-05-27T11:56:52;4.32;;;1.17;;
37221;SDS011;23119;51.842;-2.230;2023-05-27T11:59:19;6.60;;;1.50;;
37221;SDS011;23119;51.842;-2.230;2023-05-27T12:01:45;5.50;;;1.30;;
37221;SDS011;23119;51.842;-2.230;2023-05-27T12:04:11;4.55;;;1.20;;
37221;SDS011;23119;51.842;-2.230;2023-05-27T12:06:37;5.25;;;1.15;;
37221;SDS011;23119;51.842;-2.230;2023-05-27T12:09:04;7.43;;;1.15;;
37221;SDS011;23119;51.842;-2.230;2023-05-27T12:11:33;12.05;;;1.55;;
37221;SDS011;23119;51.842;-2.230;2023-05-27T12:13:59;5.60;;;1.20;;
37221;SDS011;23119;51.842;-2.230;2023-05-27T12:16:29;6.50;;;1.48;;
37221;SDS011;23119;51.842;-2.230;2023-05-27T12:18:54;2.85;;;0.60;;
37221;SDS011;23119;51.842;-2.230;2023-05-27T12:21:22;6.72;;;1.05;;
37221;SDS011;23119;51.842;-2.230;2023-05-27T12:23:53;6.30;;;1.10;;
37221;SDS011;23119;51.842;-2.230;2023-05-27T12:26:19;4.30;;;0.90;;
37221;SDS011;23119;51.842;-2.230;2023-05-27T12:28:48;5.18;;;1.10;;
37221;SDS011;23119;51.842;-2.230;2023-05-27T12:31:14;3.70;;;1.00;;
37221;SDS011;23119;51.842;-2.230;2023-05-27T12:33:40;4.88;;;1.30;;
37221;SDS011;23119;51.842;-2.230;2023-05-27T12:36:06;4.25;;;1.13;;
37221;SDS011;23119;51.842;-2.230;2023-05-27T12:38:32;4.60;;;0.98;;
37221;SDS011;23119;51.842;-2.230;2023-05-27T12:40:58;5.63;;;0.90;;
37221;SDS011;23119;51.842;-2.230;2023-05-27T12:43:24;5.53;;;1.00;;
37221;SDS011;23119;51.842;-2.230;2023-05-27T12:45:52;3.38;;;0.80;;
37221;SDS011;23119;51.842;-2.230;2023-05-27T12:48:20;4.03;;;0.70;;
37221;SDS011;23119;51.842;-2.230;2023-05-27T12:50:47;4.50;;;1.08;;
37221;SDS011;23119;51.842;-2.230;2023-05-27T12:53:13;4.22;;;1.02;;
37221;SDS011;23119;51.842;-2.230;2023-05-27T12:55:39;3.78;;;0.80;;
37221;SDS011;23119;51.842;-2.230;2023-05-27T12:58:04;4.63;;;0.77;;
37221;SDS011;23119;51.842;-2.230;2023-05-27T13:00:30;2.72;;;1.00;;
37221;SDS011;23119;51.842;-2.230;2023-05-27T13:02:56;5.93;;;1.10;;
37221;SDS011;23119;51.842;-2.230;2023-05-27T13:05:24;5.25;;;0.82;;
37221;SDS011;23119;51.842;-2.230;2023-05-27T13:08:08;4.38;;;0.90;;
37221;SDS011;23119;51.842;-2.230;2023-05-27T13:10:34;3.03;;;1.10;;
37221;SDS011;23119;51.842;-2.230;2023-05-27T13:13:00;3.40;;;0.70;;
37221;SDS011;23119;51.842;-2.230;2023-05-27T13:15:27;4.63;;;0.70;;
37221;SDS011;23119;51.842;-2.230;2023-05-27T13:17:55;2.72;;;0.90;;
37221;SDS011;23119;51.842;-2.230;2023-05-27T13:20:22;3.65;;;0.80;;
37221;SDS011;23119;51.842;-2.230;2023-05-27T13:22:49;5.95;;;0.93;;
37221;SDS011;23119;51.842;-2.230;2023-05-27T13:25:15;3.85;;;0.50;;
37221;SDS011;23119;51.842;-2.230;2023-05-27T13:27:44;4.57;;;0.95;;
37221;SDS011;23119;51.842;-2.230;2023-05-27T13:30:16;2.33;;;0.70;;
37221;SDS011;23119;51.842;-2.230;2023-05-27T13:32:44;6.18;;;0.90;;
37221;SDS011;23119;51.842;-2.230;2023-05-27T13:35:12;3.75;;;0.98;;
37221;SDS011;23119;51.842;-2.230;2023-05-27T13:37:39;4.95;;;0.73;;
37221;SDS011;23119;51.842;-2.230;2023-05-27T13:40:06;6.78;;;1.10;;
37221;SDS011;23119;51.842;-2.230;2023-05-27T13:42:33;5.07;;;1.10;;
37221;SDS011;23119;51.842;-2.230;2023-05-27T13:44:58;4.30;;;1.02;;
37221;SDS011;23119;51.842;-2.230;2023-05-27T13:49:55;3.90;;;0.95;;
37221;SDS011;23119;51.842;-2.230;2023-05-27T13:52:21;3.63;;;0.75;;
37221;SDS011;23119;51.842;-2.230;2023-05-27T13:54:49;9.40;;;1.15;;
37221;SDS011;23119;51.842;-2.230;2023-05-27T13:57:15;2.50;;;0.63;;
37221;SDS011;23119;51.842;-2.230;2023-05-27T13:59:40;3.75;;;0.95;;
37221;SDS011;23119;51.842;-2.230;2023-05-27T14:02:08;3.22;;;0.93;;
37221;SDS011;23119;51.842;-2.230;2023-05-27T14:04:34;2.25;;;0.60;;
37221;SDS011;23119;51.842;-2.230;2023-05-27T14:07:00;4.43;;;0.82;;
37221;SDS011;23119;51.842;-2.230;2023-05-27T14:09:26;3.85;;;0.80;;
37221;SDS011;23119;51.842;-2.230;2023-05-27T14:11:54;5.97;;;1.00;;
37221;SDS011;23119;51.842;-2.230;2023-05-27T14:14:20;4.50;;;1.10;;
37221;SDS011;23119;51.842;-2.230;2023-05-27T14:16:46;4.07;;;1.20;;
37221;SDS011;23119;51.842;-2.230;2023-05-27T14:19:12;3.30;;;0.73;;
37221;SDS011;23119;51.842;-2.230;2023-05-27T14:21:38;2.08;;;0.75;;
37221;SDS011;23119;51.842;-2.230;2023-05-27T14:24:04;5.30;;;1.35;;
37221;SDS011;23119;51.842;-2.230;2023-05-27T14:26:30;4.70;;;1.00;;
37221;SDS011;23119;51.842;-2.230;2023-05-27T14:28:55;3.75;;;0.88;;
37221;SDS011;23119;51.842;-2.230;2023-05-27T14:31:21;4.50;;;0.88;;
37221;SDS011;23119;51.842;-2.230;2023-05-27T14:33:47;2.70;;;0.80;;
37221;SDS011;23119;51.842;-2.230;2023-05-27T14:36:12;4.15;;;0.80;;
37221;SDS011;23119;51.842;-2.230;2023-05-27T14:38:38;3.10;;;1.27;;
37221;SDS011;23119;51.842;-2.230;2023-05-27T14:41:04;3.92;;;0.73;;
37221;SDS011;23119;51.842;-2.230;2023-05-27T14:43:30;4.43;;;1.00;;
37221;SDS011;23119;51.842;-2.230;2023-05-27T14:45:57;6.82;;;1.08;;
37221;SDS011;23119;51.842;-2.230;2023-05-27T14:48:24;6.68;;;1.20;;